createdAt,value
2018-12-07T00:00:34.877Z,9.62
2018-12-07T00:01:15.452Z,9.62
2018-12-07T00:01:56.084Z,9.66
2018-12-07T00:02:36.656Z,9.66
2018-12-07T00:03:17.219Z,9.69
2018-12-07T00:03:57.803Z,9.74
2018-12-07T00:04:38.379Z,9.69
2018-12-07T00:05:18.968Z,9.62
2018-12-07T00:05:59.547Z,9.69
2018-12-07T00:06:40.101Z,9.68
2018-12-07T00:07:20.650Z,9.69
2018-12-07T00:08:01.209Z,9.74
2018-12-07T00:08:41.792Z,9.74
2018-12-07T00:09:22.358Z,9.69
2018-12-07T00:10:03.008Z,9.8
2018-12-07T00:10:43.847Z,9.69
2018-12-07T00:11:24.484Z,9.68
2018-12-07T00:12:05.153Z,9.65
2018-12-07T00:12:45.736Z,9.65
2018-12-07T00:13:26.330Z,9.73
2018-12-07T00:14:07.004Z,9.72
2018-12-07T00:14:47.577Z,9.77
2018-12-07T00:15:28.132Z,9.74
2018-12-07T00:16:08.689Z,9.68
2018-12-07T00:16:49.259Z,9.73
2018-12-07T00:17:30.097Z,9.69
2018-12-07T00:18:10.608Z,9.74
2018-12-07T00:18:51.206Z,9.72
2018-12-07T00:19:31.762Z,9.73
2018-12-07T00:20:12.403Z,9.72
2018-12-07T00:20:52.907Z,9.72
2018-12-07T00:21:33.535Z,9.74
2018-12-07T00:22:14.083Z,9.76
2018-12-07T00:22:54.666Z,9.73
2018-12-07T00:23:35.253Z,9.72
2018-12-07T00:24:15.778Z,9.83
2018-12-07T00:24:56.330Z,9.74
2018-12-07T00:25:36.947Z,9.73
2018-12-07T00:26:17.485Z,9.74
2018-12-07T00:26:58.068Z,9.79
2018-12-07T00:27:38.610Z,9.8
2018-12-07T00:28:19.202Z,9.74
2018-12-07T00:28:59.781Z,9.82
2018-12-07T00:29:40.424Z,9.79
2018-12-07T00:30:21.003Z,9.83
2018-12-07T00:31:01.590Z,9.84
2018-12-07T00:31:42.163Z,9.84
2018-12-07T00:32:22.723Z,9.89
2018-12-07T00:33:03.287Z,9.84
2018-12-07T00:33:43.932Z,9.8
2018-12-07T00:34:24.563Z,9.84
2018-12-07T00:35:05.196Z,9.79
2018-12-07T00:35:45.745Z,9.87
2018-12-07T00:36:26.318Z,9.83
2018-12-07T00:37:06.890Z,9.86
2018-12-07T00:37:47.442Z,9.77
2018-12-07T00:38:28.004Z,9.84
2018-12-07T00:39:08.612Z,9.76
2018-12-07T00:39:49.303Z,9.83
2018-12-07T00:40:29.887Z,9.84
2018-12-07T00:41:10.446Z,9.89
2018-12-07T00:41:51.143Z,9.87
2018-12-07T00:42:31.702Z,9.8
2018-12-07T00:43:12.279Z,9.86
2018-12-07T00:43:52.915Z,9.84
2018-12-07T00:44:33.751Z,9.8
2018-12-07T00:45:14.419Z,9.92
2018-12-07T00:45:54.975Z,9.89
2018-12-07T00:46:35.543Z,9.89
2018-12-07T00:47:16.091Z,9.92
2018-12-07T00:47:56.655Z,9.87
2018-12-07T00:48:37.231Z,9.92
2018-12-07T00:49:17.864Z,9.92
2018-12-07T00:49:58.437Z,9.86
2018-12-07T00:50:38.979Z,9.84
2018-12-07T00:51:19.559Z,9.98
2018-12-07T00:52:00.189Z,9.94
2018-12-07T00:52:40.770Z,9.84
2018-12-07T00:53:21.452Z,9.86
2018-12-07T00:54:01.993Z,9.98
2018-12-07T00:54:42.613Z,9.94
2018-12-07T00:55:23.133Z,9.92
2018-12-07T00:56:03.696Z,10.01
2018-12-07T00:56:44.317Z,9.84
2018-12-07T00:57:24.975Z,9.97
2018-12-07T00:58:05.652Z,10.01
2018-12-07T00:58:46.265Z,9.94
2018-12-07T00:59:26.865Z,10.02
2018-12-07T01:00:07.451Z,9.98
2018-12-07T01:00:48.007Z,9.97
2018-12-07T01:01:28.600Z,9.97
2018-12-07T01:02:09.176Z,9.95
2018-12-07T01:02:49.743Z,9.99
2018-12-07T01:03:30.286Z,9.95
2018-12-07T01:04:10.839Z,10.01
2018-12-07T01:04:51.447Z,10.02
2018-12-07T01:05:32.019Z,9.95
2018-12-07T01:06:12.694Z,9.99
2018-12-07T01:06:53.269Z,10.02
2018-12-07T01:07:33.833Z,10.01
2018-12-07T01:08:14.427Z,10.02
2018-12-07T01:08:54.981Z,10.04
2018-12-07T01:09:35.538Z,9.98
2018-12-07T01:10:16.104Z,9.94
2018-12-07T01:10:56.686Z,9.97
2018-12-07T01:11:37.346Z,10.09
2018-12-07T01:12:17.891Z,9.98
2018-12-07T01:12:58.478Z,10.02
2018-12-07T01:13:39.062Z,10.04
2018-12-07T01:14:19.686Z,10.01
2018-12-07T01:15:00.290Z,10.05
2018-12-07T01:15:40.887Z,10.05
2018-12-07T01:16:21.459Z,10.07
2018-12-07T01:17:02.770Z,10.02
2018-12-07T01:17:43.326Z,10.09
2018-12-07T01:18:23.877Z,10.09
2018-12-07T01:19:04.435Z,10.05
2018-12-07T01:19:44.996Z,10.07
2018-12-07T01:20:25.563Z,10.1
2018-12-07T01:21:06.136Z,10.05
2018-12-07T01:21:46.704Z,10.07
2018-12-07T01:22:27.273Z,10.1
2018-12-07T01:23:07.833Z,10.12
2018-12-07T01:23:48.373Z,10.09
2018-12-07T01:24:28.936Z,10.07
2018-12-07T01:25:09.496Z,10.04
2018-12-07T01:25:50.061Z,10.1
2018-12-07T01:26:30.675Z,10.1
2018-12-07T01:27:11.251Z,10.1
2018-12-07T01:27:51.821Z,10.09
2018-12-07T01:28:32.391Z,10.07
2018-12-07T01:29:12.944Z,10.07
2018-12-07T01:29:53.505Z,10.15
2018-12-07T01:30:34.059Z,10.17
2018-12-07T01:31:14.620Z,10.09
2018-12-07T01:31:55.183Z,10.13
2018-12-07T01:32:35.737Z,10.12
2018-12-07T01:33:16.317Z,10.13
2018-12-07T01:33:56.907Z,10.15
2018-12-07T01:34:37.492Z,10.13
2018-12-07T01:35:18.092Z,10.16
2018-12-07T01:35:58.659Z,10.19
2018-12-07T01:36:39.434Z,10.16
2018-12-07T01:37:19.981Z,10.23
2018-12-07T01:38:00.589Z,10.2
2018-12-07T01:38:41.170Z,10.16
2018-12-07T01:39:21.745Z,10.15
2018-12-07T01:40:02.307Z,10.19
2018-12-07T01:40:42.878Z,10.19
2018-12-07T01:41:23.444Z,10.16
2018-12-07T01:42:03.998Z,10.17
2018-12-07T01:42:44.557Z,10.15
2018-12-07T01:43:25.132Z,10.12
2018-12-07T01:44:05.684Z,10.13
2018-12-07T01:44:46.239Z,10.16
2018-12-07T01:45:26.807Z,10.17
2018-12-07T01:46:07.392Z,10.2
2018-12-07T01:46:47.983Z,10.25
2018-12-07T01:47:28.638Z,10.17
2018-12-07T01:48:09.199Z,10.28
2018-12-07T01:48:49.776Z,10.22
2018-12-07T01:49:30.355Z,10.19
2018-12-07T01:50:17.579Z,10.22
2018-12-07T01:50:58.201Z,10.22
2018-12-07T01:51:38.807Z,10.2
2018-12-07T01:52:19.389Z,10.19
2018-12-07T01:52:59.962Z,10.26
2018-12-07T01:53:40.513Z,10.25
2018-12-07T01:54:21.104Z,10.23
2018-12-07T01:55:01.661Z,10.17
2018-12-07T01:55:42.222Z,10.26
2018-12-07T01:56:22.789Z,10.22
2018-12-07T01:57:03.381Z,10.2
2018-12-07T01:57:43.951Z,10.22
2018-12-07T01:58:24.529Z,10.23
2018-12-07T01:59:05.074Z,10.26
2018-12-07T01:59:45.628Z,10.22
2018-12-07T02:00:26.185Z,10.2
2018-12-07T02:01:06.748Z,10.26
2018-12-07T02:01:47.328Z,10.2
2018-12-07T02:02:27.876Z,10.25
2018-12-07T02:03:08.431Z,10.2
2018-12-07T02:03:48.999Z,10.22
2018-12-07T02:04:29.563Z,10.22
2018-12-07T02:05:10.131Z,10.22
2018-12-07T02:05:50.700Z,10.28
2018-12-07T02:06:31.259Z,10.23
2018-12-07T02:07:11.811Z,10.22
2018-12-07T02:07:52.389Z,10.22
2018-12-07T02:08:32.945Z,10.25
2018-12-07T02:09:13.496Z,10.19
2018-12-07T02:09:54.094Z,10.26
2018-12-07T02:10:34.667Z,10.23
2018-12-07T02:11:15.233Z,10.22
2018-12-07T02:11:55.781Z,10.2
2018-12-07T02:12:36.364Z,10.26
2018-12-07T02:13:16.909Z,10.22
2018-12-07T02:13:57.473Z,10.22
2018-12-07T02:14:38.027Z,10.26
2018-12-07T02:15:18.617Z,10.28
2018-12-07T02:15:59.212Z,10.22
2018-12-07T02:16:39.816Z,10.19
2018-12-07T02:17:20.368Z,10.23
2018-12-07T02:18:00.946Z,10.23
2018-12-07T02:18:41.496Z,10.23
2018-12-07T02:19:22.068Z,10.23
2018-12-07T02:20:02.629Z,10.25
2018-12-07T02:20:43.188Z,10.25
2018-12-07T02:21:23.742Z,10.19
2018-12-07T02:22:04.330Z,10.22
2018-12-07T02:22:44.911Z,10.22
2018-12-07T02:23:25.471Z,10.28
2018-12-07T02:24:06.052Z,10.26
2018-12-07T02:24:46.599Z,10.28
2018-12-07T02:25:27.173Z,10.25
2018-12-07T02:26:07.754Z,10.28
2018-12-07T02:26:48.340Z,10.22
2018-12-07T02:27:28.935Z,10.26
2018-12-07T02:28:09.492Z,10.17
2018-12-07T02:28:50.064Z,10.22
2018-12-07T02:29:30.619Z,10.2
2018-12-07T02:30:11.186Z,10.22
2018-12-07T02:30:51.741Z,10.23
2018-12-07T02:31:32.304Z,10.2
2018-12-07T02:32:12.867Z,10.26
2018-12-07T02:32:53.442Z,10.23
2018-12-07T02:33:34.040Z,10.17
2018-12-07T02:34:14.603Z,10.22
2018-12-07T02:34:55.163Z,10.19
2018-12-07T02:35:35.731Z,10.26
2018-12-07T02:36:16.311Z,10.31
2018-12-07T02:36:56.881Z,10.23
2018-12-07T02:37:37.453Z,10.33
2018-12-07T02:38:18.017Z,10.33
2018-12-07T02:38:58.624Z,10.31
2018-12-07T02:39:39.202Z,10.28
2018-12-07T02:40:19.747Z,10.33
2018-12-07T02:41:00.305Z,10.3
2018-12-07T02:41:40.874Z,10.26
2018-12-07T02:42:21.472Z,10.31
2018-12-07T02:43:02.038Z,10.33
2018-12-07T02:43:42.621Z,10.22
2018-12-07T02:44:23.176Z,10.25
2018-12-07T02:45:03.738Z,10.23
2018-12-07T02:45:44.348Z,10.3
2018-12-07T02:46:24.931Z,10.35
2018-12-07T02:47:05.501Z,10.33
2018-12-07T02:47:46.077Z,10.26
2018-12-07T02:48:26.635Z,10.31
2018-12-07T02:49:07.193Z,10.23
2018-12-07T02:49:47.790Z,10.35
2018-12-07T02:50:28.339Z,10.23
2018-12-07T02:51:08.930Z,10.35
2018-12-07T02:51:49.491Z,10.31
2018-12-07T02:52:30.090Z,10.31
2018-12-07T02:53:10.633Z,10.34
2018-12-07T02:53:51.270Z,10.31
2018-12-07T02:54:31.839Z,10.26
2018-12-07T02:55:12.421Z,10.28
2018-12-07T02:55:53.026Z,10.3
2018-12-07T02:56:33.577Z,10.3
2018-12-07T02:57:14.135Z,10.28
2018-12-07T02:57:54.681Z,10.2
2018-12-07T02:58:35.244Z,10.19
2018-12-07T02:59:15.795Z,10.26
2018-12-07T02:59:56.385Z,10.23
2018-12-07T03:00:36.950Z,10.26
2018-12-07T03:01:17.536Z,10.3
2018-12-07T03:01:58.104Z,10.22
2018-12-07T03:02:38.722Z,10.28
2018-12-07T03:03:19.313Z,10.25
2018-12-07T03:03:59.850Z,10.23
2018-12-07T03:04:40.404Z,10.3
2018-12-07T03:05:20.963Z,10.23
2018-12-07T03:06:01.506Z,10.26
2018-12-07T03:06:42.177Z,10.23
2018-12-07T03:07:22.802Z,10.2
2018-12-07T03:08:03.370Z,10.26
2018-12-07T03:08:43.912Z,10.23
2018-12-07T03:09:24.468Z,10.23
2018-12-07T03:10:05.025Z,10.23
2018-12-07T03:10:45.588Z,10.2
2018-12-07T03:11:26.176Z,10.22
2018-12-07T03:12:06.722Z,10.26
2018-12-07T03:12:47.277Z,10.26
2018-12-07T03:13:27.853Z,10.23
2018-12-07T03:14:08.423Z,10.2
2018-12-07T03:14:48.982Z,10.19
2018-12-07T03:15:29.559Z,10.22
2018-12-07T03:16:10.175Z,10.16
2018-12-07T03:16:50.752Z,10.16
2018-12-07T03:17:31.311Z,10.23
2018-12-07T03:18:11.923Z,10.16
2018-12-07T03:18:52.476Z,10.15
2018-12-07T03:19:33.038Z,10.16
2018-12-07T03:20:13.680Z,10.26
2018-12-07T03:20:54.252Z,10.26
2018-12-07T03:21:34.839Z,10.15
2018-12-07T03:22:15.395Z,10.26
2018-12-07T03:22:55.945Z,10.19
2018-12-07T03:23:36.514Z,10.16
2018-12-07T03:24:17.092Z,10.15
2018-12-07T03:24:57.649Z,10.25
2018-12-07T03:25:38.232Z,10.19
2018-12-07T03:26:18.803Z,10.13
2018-12-07T03:26:59.370Z,10.2
2018-12-07T03:27:39.936Z,10.16
2018-12-07T03:28:20.500Z,10.13
2018-12-07T03:29:01.052Z,10.13
2018-12-07T03:29:41.618Z,10.2
2018-12-07T03:30:22.172Z,10.26
2018-12-07T03:31:02.806Z,10.2
2018-12-07T03:31:43.335Z,10.28
2018-12-07T03:32:23.863Z,10.22
2018-12-07T03:33:04.422Z,10.16
2018-12-07T03:33:44.977Z,10.2
2018-12-07T03:34:25.562Z,10.16
2018-12-07T03:35:06.121Z,10.17
2018-12-07T03:35:46.693Z,10.17
2018-12-07T03:36:27.321Z,10.19
2018-12-07T03:37:07.885Z,10.23
2018-12-07T03:37:48.448Z,10.15
2018-12-07T03:38:29.033Z,10.15
2018-12-07T03:39:09.584Z,10.15
2018-12-07T03:39:50.160Z,10.16
2018-12-07T03:40:30.737Z,10.12
2018-12-07T03:41:11.269Z,10.22
2018-12-07T03:41:51.828Z,10.2
2018-12-07T03:42:32.394Z,10.17
2018-12-07T03:43:12.946Z,10.09
2018-12-07T03:43:53.501Z,10.15
2018-12-07T03:44:34.105Z,10.16
2018-12-07T03:45:14.662Z,10.07
2018-12-07T03:45:55.215Z,10.19
2018-12-07T03:46:35.756Z,10.07
2018-12-07T03:47:16.304Z,10.19
2018-12-07T03:47:57.019Z,10.19
2018-12-07T03:48:37.586Z,10.17
2018-12-07T03:49:18.157Z,10.17
2018-12-07T03:49:58.801Z,10.17
2018-12-07T03:50:39.345Z,10.2
2018-12-07T03:51:19.918Z,10.13
2018-12-07T03:52:00.477Z,10.17
2018-12-07T03:52:41.082Z,10.1
2018-12-07T03:53:21.669Z,10.22
2018-12-07T03:54:02.217Z,10.15
2018-12-07T03:54:42.771Z,10.15
2018-12-07T03:55:23.347Z,10.2
2018-12-07T03:56:03.920Z,10.1
2018-12-07T03:56:44.466Z,10.12
2018-12-07T03:57:25.024Z,10.15
2018-12-07T03:58:05.590Z,10.16
2018-12-07T03:58:46.161Z,10.17
2018-12-07T03:59:26.721Z,10.22
2018-12-07T04:00:07.317Z,10.23
2018-12-07T04:00:47.912Z,10.2
2018-12-07T04:01:28.467Z,10.23
2018-12-07T04:02:09.071Z,10.23
2018-12-07T04:02:49.647Z,10.23
2018-12-07T04:03:30.225Z,10.17
2018-12-07T04:04:10.783Z,10.22
2018-12-07T04:04:51.343Z,10.22
2018-12-07T04:05:31.917Z,10.3
2018-12-07T04:06:12.484Z,10.25
2018-12-07T04:06:53.048Z,10.25
2018-12-07T04:07:33.600Z,10.2
2018-12-07T04:08:14.143Z,10.2
2018-12-07T04:08:54.706Z,10.2
2018-12-07T04:09:35.251Z,10.22
2018-12-07T04:10:15.808Z,10.22
2018-12-07T04:10:56.368Z,10.22
2018-12-07T04:11:36.987Z,10.22
2018-12-07T04:12:17.556Z,10.25
2018-12-07T04:12:58.170Z,10.25
2018-12-07T04:13:38.742Z,10.22
2018-12-07T04:14:19.440Z,10.22
2018-12-07T04:15:00.053Z,10.22
2018-12-07T04:15:40.599Z,10.19
2018-12-07T04:16:21.188Z,10.22
2018-12-07T04:17:01.758Z,10.23
2018-12-07T04:17:42.313Z,10.2
2018-12-07T04:18:22.861Z,10.22
2018-12-07T04:19:03.421Z,10.2
2018-12-07T04:19:43.990Z,10.2
2018-12-07T04:20:24.549Z,10.2
2018-12-07T04:21:05.115Z,10.2
2018-12-07T04:21:45.675Z,10.2
2018-12-07T04:22:26.239Z,10.19
2018-12-07T04:23:06.815Z,10.28
2018-12-07T04:23:47.374Z,10.3
2018-12-07T04:24:27.929Z,10.19
2018-12-07T04:25:08.491Z,10.31
2018-12-07T04:25:49.053Z,10.3
2018-12-07T04:26:29.613Z,10.3
2018-12-07T04:27:10.162Z,10.25
2018-12-07T04:27:50.828Z,10.23
2018-12-07T04:28:31.409Z,10.25
2018-12-07T04:29:11.987Z,10.35
2018-12-07T04:29:52.526Z,10.34
2018-12-07T04:30:33.098Z,10.34
2018-12-07T04:31:13.649Z,10.37
2018-12-07T04:31:54.230Z,10.3
2018-12-07T04:32:34.785Z,10.22
2018-12-07T04:33:15.347Z,10.3
2018-12-07T04:33:55.905Z,10.35
2018-12-07T04:34:36.464Z,10.33
2018-12-07T04:35:17.036Z,10.23
2018-12-07T04:35:57.575Z,10.34
2018-12-07T04:36:38.136Z,10.33
2018-12-07T04:37:18.692Z,10.34
2018-12-07T04:37:59.258Z,10.3
2018-12-07T04:38:39.821Z,10.35
2018-12-07T04:39:20.400Z,10.3
2018-12-07T04:40:00.970Z,10.35
2018-12-07T04:40:41.535Z,10.31
2018-12-07T04:41:22.086Z,10.35
2018-12-07T04:42:02.664Z,10.3
2018-12-07T04:42:43.218Z,10.33
2018-12-07T04:43:23.784Z,10.26
2018-12-07T04:44:04.359Z,10.31
2018-12-07T04:44:44.932Z,10.31
2018-12-07T04:45:25.496Z,10.28
2018-12-07T04:46:06.053Z,10.31
2018-12-07T04:46:46.649Z,10.3
2018-12-07T04:47:27.221Z,10.26
2018-12-07T04:48:07.772Z,10.28
2018-12-07T04:48:48.334Z,10.33
2018-12-07T04:49:28.895Z,10.33
2018-12-07T04:50:09.430Z,10.23
2018-12-07T04:50:49.981Z,10.3
2018-12-07T04:51:30.532Z,10.31
2018-12-07T04:52:11.095Z,10.31
2018-12-07T04:52:51.659Z,10.41
2018-12-07T04:53:32.243Z,10.26
2018-12-07T04:54:12.932Z,10.33
2018-12-07T04:54:53.505Z,10.42
2018-12-07T04:55:34.090Z,10.37
2018-12-07T04:56:14.647Z,10.33
2018-12-07T04:56:55.230Z,10.28
2018-12-07T04:57:35.871Z,10.33
2018-12-07T04:58:16.430Z,10.34
2018-12-07T04:58:57.006Z,10.33
2018-12-07T04:59:37.566Z,10.38
2018-12-07T05:00:18.135Z,10.4
2018-12-07T05:00:58.675Z,10.4
2018-12-07T05:01:39.250Z,10.3
2018-12-07T05:02:19.829Z,10.33
2018-12-07T05:03:00.390Z,10.35
2018-12-07T05:03:40.966Z,10.28
2018-12-07T05:04:21.529Z,10.35
2018-12-07T05:05:02.069Z,10.3
2018-12-07T05:05:42.623Z,10.38
2018-12-07T05:06:23.198Z,10.44
2018-12-07T05:07:03.896Z,10.35
2018-12-07T05:07:44.419Z,10.33
2018-12-07T05:08:25.007Z,10.33
2018-12-07T05:09:05.542Z,10.31
2018-12-07T05:09:46.147Z,10.37
2018-12-07T05:10:26.712Z,10.46
2018-12-07T05:11:07.330Z,10.3
2018-12-07T05:11:47.844Z,10.33
2018-12-07T05:12:28.407Z,10.46
2018-12-07T05:13:08.985Z,10.37
2018-12-07T05:13:49.679Z,10.38
2018-12-07T05:14:30.145Z,10.42
2018-12-07T05:15:10.698Z,10.41
2018-12-07T05:15:51.273Z,10.44
2018-12-07T05:16:31.909Z,10.44
2018-12-07T05:17:12.477Z,10.44
2018-12-07T05:17:53.028Z,10.51
2018-12-07T05:18:33.590Z,10.44
2018-12-07T05:19:14.142Z,10.51
2018-12-07T05:19:54.704Z,10.37
2018-12-07T05:20:35.253Z,10.44
2018-12-07T05:21:15.807Z,10.48
2018-12-07T05:21:56.374Z,10.37
2018-12-07T05:22:36.958Z,10.34
2018-12-07T05:23:17.545Z,10.51
2018-12-07T05:23:58.116Z,10.35
2018-12-07T05:24:38.671Z,10.34
2018-12-07T05:25:19.292Z,10.37
2018-12-07T05:25:59.837Z,10.31
2018-12-07T05:26:40.414Z,10.41
2018-12-07T05:27:21.014Z,10.41
2018-12-07T05:28:01.568Z,10.42
2018-12-07T05:28:42.141Z,10.31
2018-12-07T05:29:22.707Z,10.34
2018-12-07T05:30:03.260Z,10.35
2018-12-07T05:30:43.820Z,10.34
2018-12-07T05:31:24.367Z,10.4
2018-12-07T05:32:04.927Z,10.35
2018-12-07T05:32:45.489Z,10.4
2018-12-07T05:33:26.047Z,10.38
2018-12-07T05:34:06.597Z,10.4
2018-12-07T05:34:47.160Z,10.44
2018-12-07T05:35:27.731Z,10.37
2018-12-07T05:36:08.306Z,10.41
2018-12-07T05:36:49.109Z,10.51
2018-12-07T05:37:29.677Z,10.4
2018-12-07T05:38:10.241Z,10.35
2018-12-07T05:38:50.823Z,10.54
2018-12-07T05:39:31.367Z,10.41
2018-12-07T05:40:11.929Z,10.51
2018-12-07T05:40:52.469Z,10.41
2018-12-07T05:41:33.026Z,10.51
2018-12-07T05:42:13.585Z,10.53
2018-12-07T05:42:54.200Z,10.41
2018-12-07T05:43:34.819Z,10.35
2018-12-07T05:44:15.383Z,10.44
2018-12-07T05:44:55.959Z,10.42
2018-12-07T05:45:36.502Z,10.44
2018-12-07T05:46:17.093Z,10.54
2018-12-07T05:47:00.619Z,10.38
2018-12-07T05:47:41.187Z,10.46
2018-12-07T05:48:23.693Z,10.46
2018-12-07T05:49:02.332Z,10.54
2018-12-07T05:49:42.906Z,10.49
2018-12-07T05:50:23.463Z,10.48
2018-12-07T05:51:04.020Z,10.42
2018-12-07T05:51:44.584Z,10.49
2018-12-07T05:52:25.144Z,10.44
2018-12-07T05:53:05.714Z,10.48
2018-12-07T05:53:46.272Z,10.53
2018-12-07T05:54:26.960Z,10.51
2018-12-07T05:55:08.141Z,10.51
2018-12-07T05:55:49.429Z,10.46
2018-12-07T05:56:30.376Z,10.48
2018-12-07T05:57:11.525Z,10.38
2018-12-07T05:57:52.667Z,10.42
2018-12-07T05:58:33.381Z,10.49
2018-12-07T05:59:14.415Z,10.46
2018-12-07T05:59:55.353Z,10.46
2018-12-07T06:00:36.483Z,10.51
2018-12-07T06:01:17.098Z,10.46
2018-12-07T06:01:57.660Z,10.46
2018-12-07T06:02:38.274Z,10.53
2018-12-07T06:03:19.240Z,10.49
2018-12-07T06:04:00.167Z,10.48
2018-12-07T06:04:41.208Z,10.44
2018-12-07T06:05:21.951Z,10.46
2018-12-07T06:06:02.673Z,10.4
2018-12-07T06:06:43.671Z,10.46
2018-12-07T06:07:24.712Z,10.53
2018-12-07T06:08:05.286Z,10.51
2018-12-07T06:08:45.836Z,10.49
2018-12-07T06:09:26.401Z,10.44
2018-12-07T06:10:06.944Z,10.48
2018-12-07T06:10:47.522Z,10.46
2018-12-07T06:11:28.096Z,10.46
2018-12-07T06:12:08.694Z,10.42
2018-12-07T06:12:49.326Z,10.59
2018-12-07T06:13:29.936Z,10.51
2018-12-07T06:14:10.507Z,10.54
2018-12-07T06:14:51.095Z,10.57
2018-12-07T06:15:31.671Z,10.48
2018-12-07T06:16:12.243Z,10.53
2018-12-07T06:16:52.817Z,10.57
2018-12-07T06:17:33.367Z,10.49
2018-12-07T06:18:13.950Z,10.51
2018-12-07T06:18:54.509Z,10.56
2018-12-07T06:19:35.081Z,10.56
2018-12-07T06:20:15.639Z,10.57
2018-12-07T06:20:56.221Z,10.54
2018-12-07T06:21:36.817Z,10.57
2018-12-07T06:22:17.407Z,10.51
2018-12-07T06:22:57.960Z,10.6
2018-12-07T06:23:38.528Z,10.61
2018-12-07T06:24:19.112Z,10.63
2018-12-07T06:24:59.705Z,10.63
2018-12-07T06:25:40.266Z,10.57
2018-12-07T06:26:20.828Z,10.6
2018-12-07T06:27:01.368Z,10.54
2018-12-07T06:27:41.931Z,10.59
2018-12-07T06:28:22.480Z,10.61
2018-12-07T06:29:03.031Z,10.63
2018-12-07T06:29:43.596Z,10.6
2018-12-07T06:30:24.146Z,10.49
2018-12-07T06:31:04.741Z,10.61
2018-12-07T06:31:45.314Z,10.54
2018-12-07T06:32:25.999Z,10.54
2018-12-07T06:33:06.750Z,10.56
2018-12-07T06:33:47.315Z,10.63
2018-12-07T06:34:27.895Z,10.56
2018-12-07T06:35:08.479Z,10.63
2018-12-07T06:35:49.045Z,10.63
2018-12-07T06:36:29.612Z,10.64
2018-12-07T06:37:10.202Z,10.61
2018-12-07T06:37:50.747Z,10.54
2018-12-07T06:38:31.365Z,10.63
2018-12-07T06:39:11.928Z,10.61
2018-12-07T06:39:52.496Z,10.57
2018-12-07T06:40:33.101Z,10.64
2018-12-07T06:41:13.643Z,10.6
2018-12-07T06:41:54.342Z,10.67
2018-12-07T06:42:35.714Z,10.56
2018-12-07T06:43:16.431Z,10.54
2018-12-07T06:43:57.239Z,10.57
2018-12-07T06:44:37.841Z,10.59
2018-12-07T06:45:18.400Z,10.71
2018-12-07T06:45:58.997Z,10.64
2018-12-07T06:46:39.605Z,10.61
2018-12-07T06:47:20.485Z,10.69
2018-12-07T06:48:01.051Z,10.72
2018-12-07T06:48:41.618Z,10.72
2018-12-07T06:49:22.192Z,10.63
2018-12-07T06:50:02.864Z,10.72
2018-12-07T06:50:43.537Z,10.69
2018-12-07T06:51:24.245Z,10.76
2018-12-07T06:52:04.841Z,10.72
2018-12-07T06:52:45.519Z,10.69
2018-12-07T06:53:26.072Z,10.68
2018-12-07T06:54:06.627Z,10.67
2018-12-07T06:54:47.180Z,10.76
2018-12-07T06:55:27.743Z,10.71
2018-12-07T06:56:08.323Z,10.74
2018-12-07T06:56:48.871Z,10.76
2018-12-07T06:57:29.477Z,10.68
2018-12-07T06:58:10.393Z,10.71
2018-12-07T06:58:50.962Z,10.71
2018-12-07T06:59:31.539Z,10.72
2018-12-07T07:00:12.199Z,10.74
2018-12-07T07:00:52.822Z,10.76
2018-12-07T07:01:33.405Z,10.71
2018-12-07T07:02:13.991Z,10.72
2018-12-07T07:02:54.592Z,10.69
2018-12-07T07:03:35.916Z,10.74
2018-12-07T07:04:15.715Z,10.75
2018-12-07T07:04:56.285Z,10.71
2018-12-07T07:05:36.858Z,10.74
2018-12-07T07:06:17.430Z,10.75
2018-12-07T07:06:57.996Z,10.71
2018-12-07T07:07:39.102Z,10.74
2018-12-07T07:08:20.176Z,10.72
2018-12-07T07:09:00.935Z,10.74
2018-12-07T07:09:41.664Z,10.72
2018-12-07T07:10:22.411Z,10.74
2018-12-07T07:11:02.979Z,10.76
2018-12-07T07:11:43.672Z,10.72
2018-12-07T07:12:24.246Z,10.76
2018-12-07T07:13:04.882Z,10.72
2018-12-07T07:13:45.468Z,10.84
2018-12-07T07:14:26.039Z,10.81
2018-12-07T07:15:06.600Z,10.76
2018-12-07T07:15:47.160Z,10.78
2018-12-07T07:16:27.902Z,10.69
2018-12-07T07:17:08.474Z,10.79
2018-12-07T07:17:49.207Z,10.74
2018-12-07T07:18:29.774Z,10.72
2018-12-07T07:19:10.328Z,10.72
2018-12-07T07:19:51.010Z,10.75
2018-12-07T07:20:31.536Z,10.75
2018-12-07T07:21:12.107Z,10.81
2018-12-07T07:21:52.719Z,10.74
2018-12-07T07:22:33.289Z,10.74
2018-12-07T07:23:13.953Z,10.75
2018-12-07T07:23:54.500Z,10.78
2018-12-07T07:24:35.085Z,10.78
2018-12-07T07:25:15.642Z,10.75
2018-12-07T07:25:56.259Z,10.72
2018-12-07T07:26:36.885Z,10.76
2018-12-07T07:27:17.432Z,10.71
2018-12-07T07:27:58.221Z,10.79
2018-12-07T07:28:38.802Z,10.74
2018-12-07T07:29:19.363Z,10.76
2018-12-07T07:29:59.956Z,10.76
2018-12-07T07:30:40.516Z,10.79
2018-12-07T07:31:21.090Z,10.78
2018-12-07T07:32:01.674Z,10.78
2018-12-07T07:32:42.255Z,10.79
2018-12-07T07:33:22.970Z,10.79
2018-12-07T07:34:03.564Z,10.76
2018-12-07T07:34:44.127Z,10.76
2018-12-07T07:35:24.695Z,10.74
2018-12-07T07:36:05.255Z,10.76
2018-12-07T07:36:46.064Z,10.76
2018-12-07T07:37:26.626Z,10.89
2018-12-07T07:38:07.202Z,10.86
2018-12-07T07:38:47.815Z,10.82
2018-12-07T07:39:28.368Z,10.82
2018-12-07T07:40:08.971Z,10.75
2018-12-07T07:40:49.539Z,10.81
2018-12-07T07:41:30.101Z,10.87
2018-12-07T07:42:10.774Z,10.79
2018-12-07T07:42:51.347Z,10.79
2018-12-07T07:43:31.902Z,10.84
2018-12-07T07:44:12.460Z,10.81
2018-12-07T07:44:53.014Z,10.82
2018-12-07T07:45:33.566Z,10.84
2018-12-07T07:46:14.114Z,10.84
2018-12-07T07:46:54.674Z,10.9
2018-12-07T07:47:35.232Z,10.89
2018-12-07T07:48:15.943Z,10.84
2018-12-07T07:48:56.505Z,10.86
2018-12-07T07:49:37.374Z,10.87
2018-12-07T07:50:18.066Z,10.89
2018-12-07T07:50:58.734Z,10.84
2018-12-07T07:51:39.334Z,10.86
2018-12-07T07:52:19.888Z,10.81
2018-12-07T07:53:00.467Z,10.86
2018-12-07T07:53:41.018Z,10.82
2018-12-07T07:54:21.580Z,10.87
2018-12-07T07:55:02.178Z,10.89
2018-12-07T07:55:42.774Z,10.9
2018-12-07T07:56:23.330Z,10.89
2018-12-07T07:57:03.936Z,10.86
2018-12-07T07:57:44.586Z,10.9
2018-12-07T07:58:25.266Z,10.89
2018-12-07T07:59:05.819Z,10.9
2018-12-07T07:59:46.402Z,10.92
2018-12-07T08:00:27.150Z,10.87
2018-12-07T08:01:07.745Z,10.92
2018-12-07T08:01:48.335Z,10.87
2018-12-07T08:02:29.226Z,10.87
2018-12-07T08:03:09.487Z,10.92
2018-12-07T08:03:50.226Z,11.04
2018-12-07T08:04:30.672Z,10.97
2018-12-07T08:05:11.258Z,10.96
2018-12-07T08:05:52.003Z,11.02
2018-12-07T08:06:32.552Z,10.99
2018-12-07T08:07:13.117Z,10.97
2018-12-07T08:07:53.683Z,10.94
2018-12-07T08:08:34.409Z,10.99
2018-12-07T08:09:14.945Z,10.93
2018-12-07T08:09:55.518Z,10.93
2018-12-07T08:10:36.060Z,10.99
2018-12-07T08:11:16.648Z,11.02
2018-12-07T08:11:57.255Z,11.02
2018-12-07T08:12:37.809Z,11.04
2018-12-07T08:13:18.371Z,11
2018-12-07T08:13:58.915Z,11.04
2018-12-07T08:14:39.474Z,11.02
2018-12-07T08:15:20.030Z,11
2018-12-07T08:16:00.594Z,11.1
2018-12-07T08:16:41.272Z,11.05
2018-12-07T08:17:21.828Z,11.1
2018-12-07T08:18:02.395Z,11.02
2018-12-07T08:18:42.940Z,11.1
2018-12-07T08:19:23.491Z,11.07
2018-12-07T08:20:04.123Z,11.07
2018-12-07T08:20:44.755Z,11.07
2018-12-07T08:21:25.333Z,11.12
2018-12-07T08:22:05.902Z,11.11
2018-12-07T08:22:46.454Z,11
2018-12-07T08:23:27.030Z,11.08
2018-12-07T08:24:07.595Z,11.08
2018-12-07T08:24:48.160Z,11.14
2018-12-07T08:25:28.869Z,11.15
2018-12-07T08:26:09.562Z,11.11
2018-12-07T08:26:50.146Z,11.22
2018-12-07T08:27:30.726Z,11.17
2018-12-07T08:28:11.357Z,11.18
2018-12-07T08:28:51.971Z,11.08
2018-12-07T08:29:32.674Z,11.17
2018-12-07T08:30:13.271Z,11.17
2018-12-07T08:30:53.925Z,11.11
2018-12-07T08:31:34.536Z,11.19
2018-12-07T08:32:15.094Z,11.08
2018-12-07T08:32:55.672Z,11.19
2018-12-07T08:33:36.253Z,11.17
2018-12-07T08:34:16.902Z,11.19
2018-12-07T08:34:57.509Z,11.22
2018-12-07T08:35:38.127Z,11.23
2018-12-07T08:36:18.731Z,11.23
2018-12-07T08:36:59.312Z,11.22
2018-12-07T08:37:39.871Z,11.27
2018-12-07T08:38:20.442Z,11.3
2018-12-07T08:39:01.007Z,11.32
2018-12-07T08:39:41.576Z,11.22
2018-12-07T08:40:22.143Z,11.27
2018-12-07T08:41:02.694Z,11.19
2018-12-07T08:41:43.243Z,11.3
2018-12-07T08:42:23.789Z,11.27
2018-12-07T08:43:04.359Z,11.27
2018-12-07T08:43:44.904Z,11.25
2018-12-07T08:44:25.454Z,11.23
2018-12-07T08:45:06.050Z,11.19
2018-12-07T08:45:46.617Z,11.23
2018-12-07T08:46:27.173Z,11.18
2018-12-07T08:47:07.828Z,11.23